sensor_id;sensor_type;location;lat;lon;timestamp;pressure;altitude;pressure_sealevel;temperature
73894;BMP280;62699;50.534;12.784;2023-06-26T00:00:06;96519.41;;;16.26
73894;BMP280;62699;50.534;12.784;2023-06-26T00:05:08;96514.28;;;16.22
73894;BMP280;62699;50.534;12.784;2023-06-26T00:10:08;96518.72;;;16.12
73894;BMP280;62699;50.534;12.784;2023-06-26T00:15:09;96513.09;;;16.10
73894;BMP280;62699;50.534;12.784;2023-06-26T00:20:10;96510.50;;;16.05
73894;BMP280;62699;50.534;12.784;2023-06-26T00:25:10;96508.91;;;15.96
73894;BMP280;62699;50.534;12.784;2023-06-26T00:30:11;96508.25;;;15.83
73894;BMP280;62699;50.534;12.784;2023-06-26T00:35:11;96511.38;;;15.73
73894;BMP280;62699;50.534;12.784;2023-06-26T00:40:12;96504.28;;;15.70
73894;BMP280;62699;50.534;12.784;2023-06-26T00:45:12;96502.09;;;15.69
73894;BMP280;62699;50.534;12.784;2023-06-26T00:50:13;96496.13;;;15.70
73894;BMP280;62699;50.534;12.784;2023-06-26T00:55:16;96490.81;;;15.65
73894;BMP280;62699;50.534;12.784;2023-06-26T01:00:16;96490.28;;;15.66
73894;BMP280;62699;50.534;12.784;2023-06-26T01:05:18;96498.03;;;15.62
73894;BMP280;62699;50.534;12.784;2023-06-26T01:10:22;96483.22;;;15.63
73894;BMP280;62699;50.534;12.784;2023-06-26T01:15:22;96481.53;;;15.60
73894;BMP280;62699;50.534;12.784;2023-06-26T01:20:23;96477.34;;;15.59
73894;BMP280;62699;50.534;12.784;2023-06-26T01:25:50;96475.59;;;15.62
73894;BMP280;62699;50.534;12.784;2023-06-26T01:30:53;96474.13;;;15.61
73894;BMP280;62699;50.534;12.784;2023-06-26T01:35:54;96465.03;;;15.58
73894;BMP280;62699;50.534;12.784;2023-06-26T01:40:54;96460.97;;;15.52
73894;BMP280;62699;50.534;12.784;2023-06-26T01:46:01;96454.81;;;15.51
73894;BMP280;62699;50.534;12.784;2023-06-26T01:51:05;96450.88;;;15.52
73894;BMP280;62699;50.534;12.784;2023-06-26T01:56:08;96444.78;;;15.46
73894;BMP280;62699;50.534;12.784;2023-06-26T02:01:13;96443.53;;;15.47
73894;BMP280;62699;50.534;12.784;2023-06-26T02:06:13;96454.13;;;15.51
73894;BMP280;62699;50.534;12.784;2023-06-26T02:11:14;96436.97;;;15.56
73894;BMP280;62699;50.534;12.784;2023-06-26T02:16:14;96436.66;;;15.59
73894;BMP280;62699;50.534;12.784;2023-06-26T02:21:14;96445.84;;;15.56
73894;BMP280;62699;50.534;12.784;2023-06-26T02:26:14;96440.09;;;15.60
73894;BMP280;62699;50.534;12.784;2023-06-26T02:31:15;96430.50;;;15.59
73894;BMP280;62699;50.534;12.784;2023-06-26T02:36:15;96434.69;;;15.60
73894;BMP280;62699;50.534;12.784;2023-06-26T02:41:16;96436.03;;;15.53
73894;BMP280;62699;50.534;12.784;2023-06-26T02:46:16;96432.19;;;15.49
73894;BMP280;62699;50.534;12.784;2023-06-26T02:51:16;96430.50;;;15.46
73894;BMP280;62699;50.534;12.784;2023-06-26T02:56:17;96432.31;;;15.43
73894;BMP280;62699;50.534;12.784;2023-06-26T03:01:17;96431.91;;;15.39
73894;BMP280;62699;50.534;12.784;2023-06-26T03:06:23;96424.03;;;15.36
73894;BMP280;62699;50.534;12.784;2023-06-26T03:11:23;96421.69;;;15.32
73894;BMP280;62699;50.534;12.784;2023-06-26T03:16:23;96422.69;;;15.29
73894;BMP280;62699;50.534;12.784;2023-06-26T03:21:23;96415.00;;;15.33
73894;BMP280;62699;50.534;12.784;2023-06-26T03:26:24;96403.59;;;15.35
73894;BMP280;62699;50.534;12.784;2023-06-26T03:31:28;96408.41;;;15.42
73894;BMP280;62699;50.534;12.784;2023-06-26T03:36:30;96410.38;;;15.54
73894;BMP280;62699;50.534;12.784;2023-06-26T03:41:32;96397.97;;;15.79
73894;BMP280;62699;50.534;12.784;2023-06-26T03:46:33;96406.63;;;16.12
73894;BMP280;62699;50.534;12.784;2023-06-26T03:51:34;96403.75;;;16.38
73894;BMP280;62699;50.534;12.784;2023-06-26T03:56:36;96400.16;;;16.64
73894;BMP280;62699;50.534;12.784;2023-06-26T04:01:37;96400.22;;;16.79
73894;BMP280;62699;50.534;12.784;2023-06-26T04:06:39;96401.84;;;17.03
73894;BMP280;62699;50.534;12.784;2023-06-26T04:11:40;96397.03;;;17.24
73894;BMP280;62699;50.534;12.784;2023-06-26T04:16:40;96394.75;;;17.43
73894;BMP280;62699;50.534;12.784;2023-06-26T04:21:41;96399.16;;;17.69
73894;BMP280;62699;50.534;12.784;2023-06-26T04:26:42;96393.97;;;18.01
73894;BMP280;62699;50.534;12.784;2023-06-26T04:31:42;96396.97;;;18.81
73894;BMP280;62699;50.534;12.784;2023-06-26T04:36:46;96389.78;;;20.47
73894;BMP280;62699;50.534;12.784;2023-06-26T04:41:49;96393.81;;;23.90
73894;BMP280;62699;50.534;12.784;2023-06-26T04:46:49;96391.66;;;25.64
73894;BMP280;62699;50.534;12.784;2023-06-26T04:51:51;96387.28;;;27.88
73894;BMP280;62699;50.534;12.784;2023-06-26T04:56:53;96402.38;;;28.72
73894;BMP280;62699;50.534;12.784;2023-06-26T05:01:54;96386.53;;;28.59
73894;BMP280;62699;50.534;12.784;2023-06-26T05:06:55;96397.38;;;30.13
73894;BMP280;62699;50.534;12.784;2023-06-26T05:11:56;96387.44;;;30.79
73894;BMP280;62699;50.534;12.784;2023-06-26T05:16:56;96393.34;;;31.89
73894;BMP280;62699;50.534;12.784;2023-06-26T05:21:56;96380.13;;;31.07
73894;BMP280;62699;50.534;12.784;2023-06-26T05:26:57;96375.06;;;30.82
73894;BMP280;62699;50.534;12.784;2023-06-26T05:31:58;96369.31;;;32.45
73894;BMP280;62699;50.534;12.784;2023-06-26T05:36:59;96367.09;;;32.89
73894;BMP280;62699;50.534;12.784;2023-06-26T05:42:00;96377.19;;;33.81
73894;BMP280;62699;50.534;12.784;2023-06-26T05:47:00;96375.97;;;33.07
73894;BMP280;62699;50.534;12.784;2023-06-26T05:52:00;96375.69;;;32.97
73894;BMP280;62699;50.534;12.784;2023-06-26T05:57:01;96368.41;;;34.56
73894;BMP280;62699;50.534;12.784;2023-06-26T06:02:02;96362.00;;;34.17
73894;BMP280;62699;50.534;12.784;2023-06-26T06:07:03;96357.69;;;35.17
73894;BMP280;62699;50.534;12.784;2023-06-26T06:12:07;96357.19;;;36.17
73894;BMP280;62699;50.534;12.784;2023-06-26T06:17:08;96353.31;;;35.48
73894;BMP280;62699;50.534;12.784;2023-06-26T06:22:09;96354.84;;;35.13
73894;BMP280;62699;50.534;12.784;2023-06-26T06:27:09;96360.03;;;34.91
73894;BMP280;62699;50.534;12.784;2023-06-26T06:32:10;96348.78;;;34.20
73894;BMP280;62699;50.534;12.784;2023-06-26T06:37:10;96355.91;;;34.27
73894;BMP280;62699;50.534;12.784;2023-06-26T06:42:10;96353.59;;;34.49
73894;BMP280;62699;50.534;12.784;2023-06-26T06:47:11;96340.72;;;35.05
73894;BMP280;62699;50.534;12.784;2023-06-26T06:52:11;96353.66;;;35.66
73894;BMP280;62699;50.534;12.784;2023-06-26T06:57:11;96348.91;;;35.33
73894;BMP280;62699;50.534;12.784;2023-06-26T07:02:13;96350.81;;;34.51
73894;BMP280;62699;50.534;12.784;2023-06-26T07:07:13;96345.47;;;35.39
73894;BMP280;62699;50.534;12.784;2023-06-26T07:12:14;96335.78;;;35.91
73894;BMP280;62699;50.534;12.784;2023-06-26T07:17:15;96334.47;;;37.20
73894;BMP280;62699;50.534;12.784;2023-06-26T07:22:15;96334.03;;;37.52
73894;BMP280;62699;50.534;12.784;2023-06-26T07:27:17;96337.69;;;37.70
73894;BMP280;62699;50.534;12.784;2023-06-26T07:32:19;96340.84;;;36.01
73894;BMP280;62699;50.534;12.784;2023-06-26T07:37:19;96340.69;;;37.07
73894;BMP280;62699;50.534;12.784;2023-06-26T07:42:20;96342.44;;;36.72
73894;BMP280;62699;50.534;12.784;2023-06-26T07:47:20;96337.03;;;35.35
73894;BMP280;62699;50.534;12.784;2023-06-26T07:52:20;96333.94;;;35.19
73894;BMP280;62699;50.534;12.784;2023-06-26T07:57:22;96327.09;;;35.28
73894;BMP280;62699;50.534;12.784;2023-06-26T08:02:22;96327.22;;;33.93
73894;BMP280;62699;50.534;12.784;2023-06-26T08:07:23;96326.38;;;36.21
73894;BMP280;62699;50.534;12.784;2023-06-26T08:12:23;96321.34;;;34.80
73894;BMP280;62699;50.534;12.784;2023-06-26T08:17:23;96326.63;;;34.30
73894;BMP280;62699;50.534;12.784;2023-06-26T08:22:23;96325.41;;;32.43
73894;BMP280;62699;50.534;12.784;2023-06-26T08:27:24;96318.56;;;32.98
73894;BMP280;62699;50.534;12.784;2023-06-26T08:32:25;96317.56;;;33.40
73894;BMP280;62699;50.534;12.784;2023-06-26T08:37:25;96315.13;;;32.50
73894;BMP280;62699;50.534;12.784;2023-06-26T08:42:25;96316.16;;;31.48
73894;BMP280;62699;50.534;12.784;2023-06-26T08:47:29;96313.75;;;29.70
73894;BMP280;62699;50.534;12.784;2023-06-26T08:52:33;96322.50;;;29.47
73894;BMP280;62699;50.534;12.784;2023-06-26T08:57:37;96315.66;;;30.93
73894;BMP280;62699;50.534;12.784;2023-06-26T09:02:40;96307.34;;;31.34
73894;BMP280;62699;50.534;12.784;2023-06-26T09:07:42;96308.91;;;30.23
73894;BMP280;62699;50.534;12.784;2023-06-26T09:12:46;96304.44;;;30.52
73894;BMP280;62699;50.534;12.784;2023-06-26T09:17:48;96298.78;;;31.28
73894;BMP280;62699;50.534;12.784;2023-06-26T09:22:49;96293.09;;;31.46
73894;BMP280;62699;50.534;12.784;2023-06-26T09:27:52;96296.47;;;30.81
73894;BMP280;62699;50.534;12.784;2023-06-26T09:32:53;96292.66;;;31.75
73894;BMP280;62699;50.534;12.784;2023-06-26T09:37:54;96288.31;;;32.15
73894;BMP280;62699;50.534;12.784;2023-06-26T09:43:02;96281.13;;;31.20
73894;BMP280;62699;50.534;12.784;2023-06-26T09:48:03;96290.38;;;30.48
73894;BMP280;62699;50.534;12.784;2023-06-26T09:53:08;96294.06;;;30.35
73894;BMP280;62699;50.534;12.784;2023-06-26T09:58:13;96296.25;;;30.95
73894;BMP280;62699;50.534;12.784;2023-06-26T10:03:15;96274.06;;;30.97
73894;BMP280;62699;50.534;12.784;2023-06-26T10:08:17;96283.34;;;30.64
73894;BMP280;62699;50.534;12.784;2023-06-26T10:13:22;96279.69;;;31.19
73894;BMP280;62699;50.534;12.784;2023-06-26T10:18:25;96267.75;;;31.57
73894;BMP280;62699;50.534;12.784;2023-06-26T10:23:27;96265.69;;;31.80
73894;BMP280;62699;50.534;12.784;2023-06-26T10:28:30;96270.75;;;31.01
73894;BMP280;62699;50.534;12.784;2023-06-26T10:33:31;96266.06;;;31.70
73894;BMP280;62699;50.534;12.784;2023-06-26T10:39:09;96248.06;;;31.97
73894;BMP280;62699;50.534;12.784;2023-06-26T10:44:11;96254.22;;;31.91
73894;BMP280;62699;50.534;12.784;2023-06-26T10:49:13;96250.72;;;31.91
73894;BMP280;62699;50.534;12.784;2023-06-26T10:54:18;96248.31;;;31.59
73894;BMP280;62699;50.534;12.784;2023-06-26T10:59:20;96238.56;;;32.04
73894;BMP280;62699;50.534;12.784;2023-06-26T11:04:49;96219.97;;;31.89
73894;BMP280;62699;50.534;12.784;2023-06-26T11:10:00;96227.50;;;31.17
73894;BMP280;62699;50.534;12.784;2023-06-26T11:15:07;96224.53;;;31.78
73894;BMP280;62699;50.534;12.784;2023-06-26T11:20:11;96225.69;;;31.93
73894;BMP280;62699;50.534;12.784;2023-06-26T11:25:11;96226.41;;;31.48
73894;BMP280;62699;50.534;12.784;2023-06-26T11:30:23;96210.47;;;31.07
73894;BMP280;62699;50.534;12.784;2023-06-26T11:35:25;96216.66;;;31.06
73894;BMP280;62699;50.534;12.784;2023-06-26T11:40:35;96219.28;;;31.43
73894;BMP280;62699;50.534;12.784;2023-06-26T11:45:36;96213.88;;;31.70
73894;BMP280;62699;50.534;12.784;2023-06-26T11:50:39;96209.09;;;32.46
73894;BMP280;62699;50.534;12.784;2023-06-26T11:55:42;96210.66;;;32.51
73894;BMP280;62699;50.534;12.784;2023-06-26T12:00:47;96212.94;;;32.58
73894;BMP280;62699;50.534;12.784;2023-06-26T12:05:48;96200.94;;;32.28
73894;BMP280;62699;50.534;12.784;2023-06-26T12:10:49;96194.69;;;32.04
73894;BMP280;62699;50.534;12.784;2023-06-26T12:15:50;96209.50;;;31.87
73894;BMP280;62699;50.534;12.784;2023-06-26T12:20:52;96206.66;;;31.18
73894;BMP280;62699;50.534;12.784;2023-06-26T12:25:53;96179.41;;;31.36
73894;BMP280;62699;50.534;12.784;2023-06-26T12:31:13;96187.09;;;31.59
73894;BMP280;62699;50.534;12.784;2023-06-26T12:36:14;96195.66;;;31.89
73894;BMP280;62699;50.534;12.784;2023-06-26T12:41:15;96195.41;;;30.92
73894;BMP280;62699;50.534;12.784;2023-06-26T12:46:16;96183.19;;;31.68
73894;BMP280;62699;50.534;12.784;2023-06-26T12:51:17;96182.06;;;30.89
73894;BMP280;62699;50.534;12.784;2023-06-26T12:56:20;96185.78;;;30.76
73894;BMP280;62699;50.534;12.784;2023-06-26T13:01:20;96181.75;;;31.22
73894;BMP280;62699;50.534;12.784;2023-06-26T13:06:22;96186.25;;;30.90
73894;BMP280;62699;50.534;12.784;2023-06-26T13:11:22;96172.09;;;30.43
73894;BMP280;62699;50.534;12.784;2023-06-26T13:16:22;96166.97;;;31.85
73894;BMP280;62699;50.534;12.784;2023-06-26T13:21:23;96161.69;;;32.44
73894;BMP280;62699;50.534;12.784;2023-06-26T13:26:23;96154.75;;;32.47
73894;BMP280;62699;50.534;12.784;2023-06-26T13:31:25;96162.00;;;31.81
73894;BMP280;62699;50.534;12.784;2023-06-26T13:36:26;96146.81;;;32.10
73894;BMP280;62699;50.534;12.784;2023-06-26T13:41:27;96142.91;;;31.95
73894;BMP280;62699;50.534;12.784;2023-06-26T13:46:28;96131.16;;;32.22
73894;BMP280;62699;50.534;12.784;2023-06-26T13:51:29;96133.09;;;31.92
73894;BMP280;62699;50.534;12.784;2023-06-26T13:56:30;96134.06;;;31.53
73894;BMP280;62699;50.534;12.784;2023-06-26T14:01:30;96118.66;;;31.50
73894;BMP280;62699;50.534;12.784;2023-06-26T14:06:31;96122.78;;;31.49
73894;BMP280;62699;50.534;12.784;2023-06-26T14:11:32;96116.31;;;32.16
73894;BMP280;62699;50.534;12.784;2023-06-26T14:16:32;96106.72;;;32.21
73894;BMP280;62699;50.534;12.784;2023-06-26T14:21:33;96099.19;;;32.53
73894;BMP280;62699;50.534;12.784;2023-06-26T14:26:36;96091.25;;;32.41
73894;BMP280;62699;50.534;12.784;2023-06-26T14:31:36;96080.47;;;32.85
73894;BMP280;62699;50.534;12.784;2023-06-26T14:36:37;96072.72;;;32.52
73894;BMP280;62699;50.534;12.784;2023-06-26T14:41:37;96071.09;;;32.45
73894;BMP280;62699;50.534;12.784;2023-06-26T14:46:38;96055.56;;;32.36
73894;BMP280;62699;50.534;12.784;2023-06-26T14:51:38;96058.63;;;31.93
73894;BMP280;62699;50.534;12.784;2023-06-26T14:56:40;96063.88;;;32.34
73894;BMP280;62699;50.534;12.784;2023-06-26T15:01:43;96054.22;;;31.86
73894;BMP280;62699;50.534;12.784;2023-06-26T15:06:43;96047.94;;;32.11
73894;BMP280;62699;50.534;12.784;2023-06-26T15:11:44;96045.91;;;31.62
73894;BMP280;62699;50.534;12.784;2023-06-26T15:16:44;96050.22;;;30.96
73894;BMP280;62699;50.534;12.784;2023-06-26T15:21:45;96045.28;;;30.94
73894;BMP280;62699;50.534;12.784;2023-06-26T15:26:45;96039.63;;;30.69
73894;BMP280;62699;50.534;12.784;2023-06-26T15:31:45;96040.09;;;30.20
73894;BMP280;62699;50.534;12.784;2023-06-26T15:36:46;96033.22;;;30.23
73894;BMP280;62699;50.534;12.784;2023-06-26T15:41:52;96035.59;;;30.31
73894;BMP280;62699;50.534;12.784;2023-06-26T15:46:52;96045.06;;;30.04
73894;BMP280;62699;50.534;12.784;2023-06-26T15:51:53;96077.75;;;28.78
73894;BMP280;62699;50.534;12.784;2023-06-26T15:56:54;96096.41;;;27.66
73894;BMP280;62699;50.534;12.784;2023-06-26T16:01:54;96111.63;;;27.22
73894;BMP280;62699;50.534;12.784;2023-06-26T16:06:55;96111.75;;;27.11
73894;BMP280;62699;50.534;12.784;2023-06-26T16:11:56;96115.06;;;26.80
73894;BMP280;62699;50.534;12.784;2023-06-26T16:16:56;96129.19;;;26.59
73894;BMP280;62699;50.534;12.784;2023-06-26T16:21:57;96133.13;;;26.29
73894;BMP280;62699;50.534;12.784;2023-06-26T16:26:57;96143.03;;;26.07
73894;BMP280;62699;50.534;12.784;2023-06-26T16:32:00;96153.69;;;25.62
73894;BMP280;62699;50.534;12.784;2023-06-26T16:37:00;96151.94;;;25.43
73894;BMP280;62699;50.534;12.784;2023-06-26T16:42:10;96176.22;;;25.21
73894;BMP280;62699;50.534;12.784;2023-06-26T16:47:15;96178.97;;;25.10
73894;BMP280;62699;50.534;12.784;2023-06-26T16:52:17;96176.28;;;24.63
73894;BMP280;62699;50.534;12.784;2023-06-26T16:57:18;96170.97;;;24.67
73894;BMP280;62699;50.534;12.784;2023-06-26T17:02:18;96178.16;;;24.61
73894;BMP280;62699;50.534;12.784;2023-06-26T17:07:19;96166.50;;;24.28
73894;BMP280;62699;50.534;12.784;2023-06-26T17:12:19;96182.28;;;24.27
73894;BMP280;62699;50.534;12.784;2023-06-26T17:17:20;96181.09;;;24.30
73894;BMP280;62699;50.534;12.784;2023-06-26T17:22:22;96190.38;;;24.02
73894;BMP280;62699;50.534;12.784;2023-06-26T17:27:23;96215.16;;;23.81
73894;BMP280;62699;50.534;12.784;2023-06-26T17:32:27;96229.66;;;23.50
73894;BMP280;62699;50.534;12.784;2023-06-26T17:37:28;96224.38;;;23.43
73894;BMP280;62699;50.534;12.784;2023-06-26T17:42:28;96229.16;;;23.42
73894;BMP280;62699;50.534;12.784;2023-06-26T17:47:28;96245.22;;;23.36
73894;BMP280;62699;50.534;12.784;2023-06-26T17:52:28;96226.53;;;23.23
73894;BMP280;62699;50.534;12.784;2023-06-26T17:57:30;96238.69;;;23.20
73894;BMP280;62699;50.534;12.784;2023-06-26T18:02:31;96242.22;;;23.02
73894;BMP280;62699;50.534;12.784;2023-06-26T18:07:33;96266.41;;;22.94
73894;BMP280;62699;50.534;12.784;2023-06-26T18:12:37;96262.41;;;22.66
73894;BMP280;62699;50.534;12.784;2023-06-26T18:17:40;96268.47;;;22.55
73894;BMP280;62699;50.534;12.784;2023-06-26T18:22:41;96273.41;;;22.27
73894;BMP280;62699;50.534;12.784;2023-06-26T18:27:42;96286.25;;;22.15
73894;BMP280;62699;50.534;12.784;2023-06-26T18:32:42;96298.66;;;21.97
73894;BMP280;62699;50.534;12.784;2023-06-26T18:37:45;96301.03;;;21.64
73894;BMP280;62699;50.534;12.784;2023-06-26T18:42:45;96292.94;;;21.57
73894;BMP280;62699;50.534;12.784;2023-06-26T18:47:47;96287.03;;;21.51
73894;BMP280;62699;50.534;12.784;2023-06-26T18:52:47;96301.69;;;21.46
73894;BMP280;62699;50.534;12.784;2023-06-26T18:57:48;96298.72;;;21.25
73894;BMP280;62699;50.534;12.784;2023-06-26T19:02:49;96320.94;;;21.29
73894;BMP280;62699;50.534;12.784;2023-06-26T19:07:49;96305.09;;;21.27
73894;BMP280;62699;50.534;12.784;2023-06-26T19:12:50;96310.28;;;21.33
73894;BMP280;62699;50.534;12.784;2023-06-26T19:17:53;96313.50;;;21.12
73894;BMP280;62699;50.534;12.784;2023-06-26T19:22:53;96333.88;;;21.19
73894;BMP280;62699;50.534;12.784;2023-06-26T19:27:55;96336.59;;;21.19
73894;BMP280;62699;50.534;12.784;2023-06-26T19:32:55;96341.09;;;21.24
73894;BMP280;62699;50.534;12.784;2023-06-26T19:37:55;96338.50;;;21.26
73894;BMP280;62699;50.534;12.784;2023-06-26T19:42:56;96338.28;;;21.14
73894;BMP280;62699;50.534;12.784;2023-06-26T19:47:56;96336.91;;;20.96
73894;BMP280;62699;50.534;12.784;2023-06-26T19:52:56;96364.31;;;20.79
73894;BMP280;62699;50.534;12.784;2023-06-26T19:57:56;96371.47;;;20.57
73894;BMP280;62699;50.534;12.784;2023-06-26T20:02:57;96369.03;;;20.44
73894;BMP280;62699;50.534;12.784;2023-06-26T20:07:59;96365.66;;;20.36
73894;BMP280;62699;50.534;12.784;2023-06-26T20:13:00;96370.78;;;20.32
73894;BMP280;62699;50.534;12.784;2023-06-26T20:18:06;96379.06;;;20.24
73894;BMP280;62699;50.534;12.784;2023-06-26T20:23:06;96375.28;;;20.20
73894;BMP280;62699;50.534;12.784;2023-06-26T20:28:07;96378.47;;;20.09
73894;BMP280;62699;50.534;12.784;2023-06-26T20:33:08;96377.91;;;20.10
73894;BMP280;62699;50.534;12.784;2023-06-26T20:38:08;96384.66;;;20.09
73894;BMP280;62699;50.534;12.784;2023-06-26T20:43:09;96383.03;;;20.06
73894;BMP280;62699;50.534;12.784;2023-06-26T20:48:10;96366.84;;;20.00
73894;BMP280;62699;50.534;12.784;2023-06-26T20:53:11;96374.41;;;19.92
73894;BMP280;62699;50.534;12.784;2023-06-26T20:58:11;96368.88;;;19.75
73894;BMP280;62699;50.534;12.784;2023-06-26T21:03:13;96366.09;;;19.58
73894;BMP280;62699;50.534;12.784;2023-06-26T21:08:13;96364.72;;;19.42
73894;BMP280;62699;50.534;12.784;2023-06-26T21:13:15;96361.31;;;19.34
73894;BMP280;62699;50.534;12.784;2023-06-26T21:18:17;96367.66;;;19.36
73894;BMP280;62699;50.534;12.784;2023-06-26T21:23:17;96367.44;;;19.42
73894;BMP280;62699;50.534;12.784;2023-06-26T21:28:18;96369.75;;;19.53
73894;BMP280;62699;50.534;12.784;2023-06-26T21:33:18;96368.47;;;19.54
73894;BMP280;62699;50.534;12.784;2023-06-26T21:38:19;96376.72;;;19.47
73894;BMP280;62699;50.534;12.784;2023-06-26T21:43:20;96393.06;;;19.54
73894;BMP280;62699;50.534;12.784;2023-06-26T21:48:20;96404.22;;;19.41
73894;BMP280;62699;50.534;12.784;2023-06-26T21:53:21;96411.13;;;19.42
73894;BMP280;62699;50.534;12.784;2023-06-26T21:58:22;96410.81;;;19.30
73894;BMP280;62699;50.534;12.784;2023-06-26T22:03:26;96412.13;;;19.22
73894;BMP280;62699;50.534;12.784;2023-06-26T22:08:26;96416.91;;;19.14
73894;BMP280;62699;50.534;12.784;2023-06-26T22:13:27;96409.63;;;19.16
73894;BMP280;62699;50.534;12.784;2023-06-26T22:18:27;96415.81;;;19.09
73894;BMP280;62699;50.534;12.784;2023-06-26T22:23:27;96418.81;;;18.88
73894;BMP280;62699;50.534;12.784;2023-06-26T22:28:28;96421.53;;;18.88
73894;BMP280;62699;50.534;12.784;2023-06-26T22:33:28;96432.97;;;18.95
73894;BMP280;62699;50.534;12.784;2023-06-26T22:38:28;96435.53;;;18.92
73894;BMP280;62699;50.534;12.784;2023-06-26T22:43:29;96439.72;;;18.94
73894;BMP280;62699;50.534;12.784;2023-06-26T22:48:30;96450.81;;;18.73
73894;BMP280;62699;50.534;12.784;2023-06-26T22:53:31;96445.72;;;18.69
73894;BMP280;62699;50.534;12.784;2023-06-26T22:58:32;96442.47;;;18.78
73894;BMP280;62699;50.534;12.784;2023-06-26T23:03:34;96452.09;;;18.79
73894;BMP280;62699;50.534;12.784;2023-06-26T23:08:36;96459.94;;;18.68
73894;BMP280;62699;50.534;12.784;2023-06-26T23:13:37;96456.66;;;18.69
73894;BMP280;62699;50.534;12.784;2023-06-26T23:18:39;96452.66;;;18.63
73894;BMP280;62699;50.534;12.784;2023-06-26T23:23:40;96462.50;;;18.66
73894;BMP280;62699;50.534;12.784;2023-06-26T23:28:40;96461.75;;;18.65
73894;BMP280;62699;50.534;12.784;2023-06-26T23:33:40;96460.84;;;18.55
73894;BMP280;62699;50.534;12.784;2023-06-26T23:38:41;96455.75;;;18.44
73894;BMP280;62699;50.534;12.784;2023-06-26T23:43:42;96477.75;;;18.46
73894;BMP280;62699;50.534;12.784;2023-06-26T23:48:44;96465.56;;;18.32
73894;BMP280;62699;50.534;12.784;2023-06-26T23:53:44;96476.84;;;18.36
73894;BMP280;62699;50.534;12.784;2023-06-26T23:58:44;96476.66;;;18.34
